Airport/Facility Directory

Airport Facilities Directory John Wayne Airport

Metar/TAF

[source: ADDS]
METAR
KSNA 281253Z VRB03KT 8SM OVC011 19/17 A2991 RMK AO2 SLP126 T01940172 =
TAF
KSNA 281124Z 2812/2912 00000KT P6SM OVC011 FM281600 VRB04KT P6SM SCT012 FM281900 21009KT P6SM SCT250 FM290200 22004KT P6SM SCT012 FM290700 VRB03KT P6SM BKN012 =
SR / SS: 13:01 / 02:54 UTC ( 2017-07-28)

Sectional

Sectional Chart - Southern California

Airport Diagram

airport diagram - John Wayne Airport, Orange County

IFR Chart

IFR Chart - Southern California 

Communications

D-ATIS: 126.0 (714-546-2279)
ASOS: Tel. 714-424-0590
JOHN WAYNE TOWER: 119.9(RWY 01R/19L) 126.8(RWY 01L/19R) 128.35 379.9
JOHN WAYNE GROUND: 120.8 EAST 132.25 WEST
SOCAL APPROACH: 121.3 263.1
SOCAL DEPARTURE: 128.1 132.7 279.575 281.4
CLEARANCE DELIVERY: 118.0 121.85
UNICOM: 122.950
CTAF: 126.800

Runways

   Runway 02R/20L  Runway 02L/20R
Elevation:  56.0  41.5
Gradient:   0.3   0.3
Traffic Pattern:  Left  Right
Runway Heading:  016° Magnetic, 028° True  196° Magnetic, 208° True
Markings:  Precision Instrument in good condition.        Precision Instrument in good condition.
Glide Slope Indicator  P4L (3.00° Glide Path Angle)  P4L (3.00° Glide Path Angle)

KSNA Live ATC